Terminal Aerodrome Forecast
Issued by NWS Tampa Bay Area, FL

Home | Current Version | Previous Version | Text Only | Print | Product List | Glossary On
Versions: 1 2 3 4 5 6 7 8 9 10 11 12 13 14 15 16 17 18 19 20 21 22 23 24 25 26 27 28 29 30 31 32
959
FTUS42 KTBW 290256 AAC
TAFTPA
TAF AMD
KTPA 290256Z 2903/2924 29004KT P6SM BKN250
     FM290700 00000KT P6SM FEW250
     FM291600 22005KT P6SM SCT050 BKN110
     FM291800 24006KT P6SM VCTS SCT050CB BKN120=

USA.gov is the U.S. government's official web portal to all federal, state and local government web resources and services.